sensor_id;sensor_type;location;lat;lon;timestamp;P1;durP1;ratioP1;P2;durP2;ratioP2
50350;SDS011;36250;48.740;22.174;2024-01-30T00:01:37;20.20;;;10.23;;
50350;SDS011;36250;48.740;22.174;2024-01-30T00:04:02;22.05;;;12.15;;
50350;SDS011;36250;48.740;22.174;2024-01-30T00:06:28;24.88;;;11.95;;
50350;SDS011;36250;48.740;22.174;2024-01-30T00:08:53;21.67;;;11.05;;
50350;SDS011;36250;48.740;22.174;2024-01-30T00:11:18;21.35;;;10.70;;
50350;SDS011;36250;48.740;22.174;2024-01-30T00:13:44;22.27;;;10.95;;
50350;SDS011;36250;48.740;22.174;2024-01-30T00:16:19;21.33;;;11.50;;
50350;SDS011;36250;48.740;22.174;2024-01-30T00:18:45;27.88;;;12.55;;
50350;SDS011;36250;48.740;22.174;2024-01-30T00:21:11;19.67;;;10.88;;
50350;SDS011;36250;48.740;22.174;2024-01-30T00:23:36;26.83;;;11.93;;
50350;SDS011;36250;48.740;22.174;2024-01-30T00:26:01;50.78;;;20.58;;
50350;SDS011;36250;48.740;22.174;2024-01-30T00:28:27;102.45;;;37.20;;
50350;SDS011;36250;48.740;22.174;2024-01-30T00:30:52;151.45;;;51.95;;
50350;SDS011;36250;48.740;22.174;2024-01-30T00:33:18;180.80;;;64.93;;
50350;SDS011;36250;48.740;22.174;2024-01-30T00:35:43;115.38;;;45.05;;
50350;SDS011;36250;48.740;22.174;2024-01-30T00:38:08;97.22;;;38.50;;
50350;SDS011;36250;48.740;22.174;2024-01-30T00:40:34;61.03;;;25.05;;
50350;SDS011;36250;48.740;22.174;2024-01-30T00:42:59;45.90;;;20.73;;
50350;SDS011;36250;48.740;22.174;2024-01-30T00:45:25;47.40;;;19.02;;
50350;SDS011;36250;48.740;22.174;2024-01-30T00:47:50;43.10;;;17.52;;
50350;SDS011;36250;48.740;22.174;2024-01-30T00:50:15;46.92;;;20.95;;
50350;SDS011;36250;48.740;22.174;2024-01-30T00:52:41;41.85;;;19.40;;
50350;SDS011;36250;48.740;22.174;2024-01-30T00:55:07;45.08;;;18.98;;
50350;SDS011;36250;48.740;22.174;2024-01-30T00:57:32;50.90;;;18.98;;
50350;SDS011;36250;48.740;22.174;2024-01-30T00:59:58;47.25;;;19.45;;
50350;SDS011;36250;48.740;22.174;2024-01-30T01:02:23;49.30;;;19.17;;
50350;SDS011;36250;48.740;22.174;2024-01-30T01:04:48;52.53;;;18.88;;
50350;SDS011;36250;48.740;22.174;2024-01-30T01:07:14;51.13;;;21.17;;
50350;SDS011;36250;48.740;22.174;2024-01-30T01:09:39;48.40;;;19.83;;
50350;SDS011;36250;48.740;22.174;2024-01-30T01:12:05;42.25;;;17.55;;
50350;SDS011;36250;48.740;22.174;2024-01-30T01:14:30;30.25;;;14.27;;
50350;SDS011;36250;48.740;22.174;2024-01-30T01:16:56;29.52;;;14.10;;
50350;SDS011;36250;48.740;22.174;2024-01-30T01:19:21;31.88;;;14.95;;
50350;SDS011;36250;48.740;22.174;2024-01-30T01:21:47;27.25;;;14.90;;
50350;SDS011;36250;48.740;22.174;2024-01-30T01:24:12;29.00;;;13.85;;
50350;SDS011;36250;48.740;22.174;2024-01-30T01:26:37;24.85;;;12.65;;
50350;SDS011;36250;48.740;22.174;2024-01-30T01:29:03;24.75;;;12.48;;
50350;SDS011;36250;48.740;22.174;2024-01-30T01:31:34;24.75;;;12.30;;
50350;SDS011;36250;48.740;22.174;2024-01-30T01:34:04;29.48;;;13.50;;
50350;SDS011;36250;48.740;22.174;2024-01-30T01:36:30;29.15;;;14.18;;
50350;SDS011;36250;48.740;22.174;2024-01-30T01:38:55;28.30;;;12.85;;
50350;SDS011;36250;48.740;22.174;2024-01-30T01:41:21;32.38;;;14.23;;
50350;SDS011;36250;48.740;22.174;2024-01-30T01:43:46;28.90;;;13.68;;
50350;SDS011;36250;48.740;22.174;2024-01-30T01:46:11;24.63;;;12.20;;
50350;SDS011;36250;48.740;22.174;2024-01-30T01:48:37;21.35;;;10.55;;
50350;SDS011;36250;48.740;22.174;2024-01-30T01:51:04;23.45;;;11.07;;
50350;SDS011;36250;48.740;22.174;2024-01-30T01:53:30;21.50;;;10.00;;
50350;SDS011;36250;48.740;22.174;2024-01-30T01:55:56;24.17;;;10.93;;
50350;SDS011;36250;48.740;22.174;2024-01-30T01:58:21;25.45;;;11.23;;
50350;SDS011;36250;48.740;22.174;2024-01-30T02:00:48;25.17;;;10.82;;
50350;SDS011;36250;48.740;22.174;2024-01-30T02:03:15;21.95;;;10.50;;
50350;SDS011;36250;48.740;22.174;2024-01-30T02:05:43;22.90;;;10.35;;
50350;SDS011;36250;48.740;22.174;2024-01-30T02:08:09;23.50;;;11.25;;
50350;SDS011;36250;48.740;22.174;2024-01-30T02:10:34;20.80;;;11.05;;
50350;SDS011;36250;48.740;22.174;2024-01-30T02:12:59;26.60;;;12.52;;
50350;SDS011;36250;48.740;22.174;2024-01-30T02:15:25;19.52;;;11.23;;
50350;SDS011;36250;48.740;22.174;2024-01-30T02:17:50;18.58;;;10.70;;
50350;SDS011;36250;48.740;22.174;2024-01-30T02:20:15;16.85;;;9.80;;
50350;SDS011;36250;48.740;22.174;2024-01-30T02:22:40;25.83;;;12.15;;
50350;SDS011;36250;48.740;22.174;2024-01-30T02:25:07;22.55;;;11.18;;
50350;SDS011;36250;48.740;22.174;2024-01-30T02:27:33;16.08;;;9.05;;
50350;SDS011;36250;48.740;22.174;2024-01-30T02:29:58;14.52;;;7.75;;
50350;SDS011;36250;48.740;22.174;2024-01-30T02:32:24;13.65;;;7.00;;
50350;SDS011;36250;48.740;22.174;2024-01-30T02:34:49;17.88;;;7.85;;
50350;SDS011;36250;48.740;22.174;2024-01-30T02:37:14;14.20;;;8.25;;
50350;SDS011;36250;48.740;22.174;2024-01-30T02:39:40;17.17;;;8.18;;
50350;SDS011;36250;48.740;22.174;2024-01-30T02:42:05;14.13;;;7.57;;
50350;SDS011;36250;48.740;22.174;2024-01-30T02:44:30;12.93;;;6.50;;
50350;SDS011;36250;48.740;22.174;2024-01-30T02:46:56;16.90;;;8.10;;
50350;SDS011;36250;48.740;22.174;2024-01-30T02:49:21;16.25;;;8.40;;
50350;SDS011;36250;48.740;22.174;2024-01-30T02:51:47;12.73;;;7.97;;
50350;SDS011;36250;48.740;22.174;2024-01-30T02:54:12;14.23;;;8.23;;
50350;SDS011;36250;48.740;22.174;2024-01-30T02:56:37;18.20;;;10.13;;
50350;SDS011;36250;48.740;22.174;2024-01-30T02:59:03;16.65;;;8.15;;
50350;SDS011;36250;48.740;22.174;2024-01-30T03:01:28;16.35;;;8.68;;
50350;SDS011;36250;48.740;22.174;2024-01-30T03:03:53;20.17;;;10.10;;
50350;SDS011;36250;48.740;22.174;2024-01-30T03:06:18;20.05;;;10.60;;
50350;SDS011;36250;48.740;22.174;2024-01-30T03:08:45;17.30;;;9.55;;
50350;SDS011;36250;48.740;22.174;2024-01-30T03:11:10;17.27;;;8.57;;
50350;SDS011;36250;48.740;22.174;2024-01-30T03:13:36;17.00;;;8.98;;
50350;SDS011;36250;48.740;22.174;2024-01-30T03:16:01;20.80;;;10.13;;
50350;SDS011;36250;48.740;22.174;2024-01-30T03:18:26;16.20;;;8.73;;
50350;SDS011;36250;48.740;22.174;2024-01-30T03:20:52;16.50;;;8.35;;
50350;SDS011;36250;48.740;22.174;2024-01-30T03:23:17;14.77;;;8.32;;
50350;SDS011;36250;48.740;22.174;2024-01-30T03:25:42;12.38;;;7.28;;
50350;SDS011;36250;48.740;22.174;2024-01-30T03:28:08;14.25;;;8.18;;
50350;SDS011;36250;48.740;22.174;2024-01-30T03:30:34;13.23;;;7.95;;
50350;SDS011;36250;48.740;22.174;2024-01-30T03:32:59;19.10;;;7.95;;
50350;SDS011;36250;48.740;22.174;2024-01-30T03:35:25;13.10;;;7.35;;
50350;SDS011;36250;48.740;22.174;2024-01-30T03:37:50;13.25;;;7.47;;
50350;SDS011;36250;48.740;22.174;2024-01-30T03:40:15;14.82;;;7.50;;
50350;SDS011;36250;48.740;22.174;2024-01-30T03:42:41;10.75;;;6.82;;
50350;SDS011;36250;48.740;22.174;2024-01-30T03:45:06;16.58;;;8.10;;
50350;SDS011;36250;48.740;22.174;2024-01-30T03:47:32;11.43;;;6.57;;
50350;SDS011;36250;48.740;22.174;2024-01-30T03:49:57;13.18;;;6.70;;
50350;SDS011;36250;48.740;22.174;2024-01-30T03:52:23;10.27;;;6.10;;
50350;SDS011;36250;48.740;22.174;2024-01-30T03:54:48;11.18;;;6.38;;
50350;SDS011;36250;48.740;22.174;2024-01-30T03:57:14;10.95;;;6.47;;
50350;SDS011;36250;48.740;22.174;2024-01-30T03:59:41;8.05;;;5.22;;
50350;SDS011;36250;48.740;22.174;2024-01-30T04:02:07;10.20;;;5.85;;
50350;SDS011;36250;48.740;22.174;2024-01-30T04:04:32;13.15;;;7.03;;
50350;SDS011;36250;48.740;22.174;2024-01-30T04:06:57;10.95;;;6.07;;
50350;SDS011;36250;48.740;22.174;2024-01-30T04:09:23;11.48;;;6.38;;
50350;SDS011;36250;48.740;22.174;2024-01-30T04:11:48;11.45;;;7.25;;
50350;SDS011;36250;48.740;22.174;2024-01-30T04:14:14;16.80;;;6.85;;
50350;SDS011;36250;48.740;22.174;2024-01-30T04:16:40;10.98;;;5.95;;
50350;SDS011;36250;48.740;22.174;2024-01-30T04:19:05;9.57;;;6.25;;
50350;SDS011;36250;48.740;22.174;2024-01-30T04:21:30;12.73;;;6.57;;
50350;SDS011;36250;48.740;22.174;2024-01-30T04:23:56;10.93;;;6.50;;
50350;SDS011;36250;48.740;22.174;2024-01-30T04:26:21;11.43;;;6.57;;
50350;SDS011;36250;48.740;22.174;2024-01-30T04:28:47;14.35;;;7.00;;
50350;SDS011;36250;48.740;22.174;2024-01-30T04:31:12;14.20;;;6.97;;
50350;SDS011;36250;48.740;22.174;2024-01-30T04:33:37;17.27;;;7.20;;
50350;SDS011;36250;48.740;22.174;2024-01-30T04:36:03;16.95;;;9.38;;
50350;SDS011;36250;48.740;22.174;2024-01-30T04:38:29;19.20;;;9.85;;
50350;SDS011;36250;48.740;22.174;2024-01-30T04:40:55;20.27;;;10.00;;
50350;SDS011;36250;48.740;22.174;2024-01-30T04:43:20;16.63;;;9.35;;
50350;SDS011;36250;48.740;22.174;2024-01-30T04:45:46;18.70;;;10.63;;
50350;SDS011;36250;48.740;22.174;2024-01-30T04:48:12;15.63;;;8.88;;
50350;SDS011;36250;48.740;22.174;2024-01-30T04:50:37;20.58;;;9.98;;
50350;SDS011;36250;48.740;22.174;2024-01-30T04:53:02;18.02;;;8.98;;
50350;SDS011;36250;48.740;22.174;2024-01-30T04:55:28;19.13;;;9.63;;
50350;SDS011;36250;48.740;22.174;2024-01-30T04:57:53;20.15;;;8.88;;
50350;SDS011;36250;48.740;22.174;2024-01-30T05:00:18;19.50;;;9.27;;
50350;SDS011;36250;48.740;22.174;2024-01-30T05:02:44;18.90;;;9.68;;
50350;SDS011;36250;48.740;22.174;2024-01-30T05:05:09;20.52;;;9.95;;
50350;SDS011;36250;48.740;22.174;2024-01-30T05:07:35;18.38;;;8.93;;
50350;SDS011;36250;48.740;22.174;2024-01-30T05:10:01;18.55;;;9.55;;
50350;SDS011;36250;48.740;22.174;2024-01-30T05:12:27;21.45;;;10.68;;
50350;SDS011;36250;48.740;22.174;2024-01-30T05:14:52;22.38;;;11.63;;
50350;SDS011;36250;48.740;22.174;2024-01-30T05:17:17;24.40;;;12.93;;
50350;SDS011;36250;48.740;22.174;2024-01-30T05:19:43;24.50;;;13.20;;
50350;SDS011;36250;48.740;22.174;2024-01-30T05:22:08;29.27;;;14.35;;
50350;SDS011;36250;48.740;22.174;2024-01-30T05:24:34;28.92;;;13.38;;
50350;SDS011;36250;48.740;22.174;2024-01-30T05:27:00;21.67;;;12.32;;
50350;SDS011;36250;48.740;22.174;2024-01-30T05:29:26;25.40;;;13.15;;
50350;SDS011;36250;48.740;22.174;2024-01-30T05:31:52;29.50;;;13.27;;
50350;SDS011;36250;48.740;22.174;2024-01-30T05:34:17;30.70;;;13.95;;
50350;SDS011;36250;48.740;22.174;2024-01-30T05:36:42;56.90;;;22.85;;
50350;SDS011;36250;48.740;22.174;2024-01-30T05:39:08;31.95;;;15.50;;
50350;SDS011;36250;48.740;22.174;2024-01-30T05:41:33;30.25;;;13.02;;
50350;SDS011;36250;48.740;22.174;2024-01-30T05:43:58;24.92;;;12.13;;
50350;SDS011;36250;48.740;22.174;2024-01-30T05:46:24;27.52;;;13.32;;
50350;SDS011;36250;48.740;22.174;2024-01-30T05:48:49;20.63;;;10.55;;
50350;SDS011;36250;48.740;22.174;2024-01-30T05:51:14;23.48;;;11.85;;
50350;SDS011;36250;48.740;22.174;2024-01-30T05:53:40;22.52;;;9.88;;
50350;SDS011;36250;48.740;22.174;2024-01-30T05:56:05;26.15;;;12.55;;
50350;SDS011;36250;48.740;22.174;2024-01-30T05:58:31;21.98;;;11.88;;
50350;SDS011;36250;48.740;22.174;2024-01-30T06:00:56;25.25;;;11.88;;
50350;SDS011;36250;48.740;22.174;2024-01-30T06:03:23;27.58;;;13.23;;
50350;SDS011;36250;48.740;22.174;2024-01-30T06:05:48;30.92;;;13.90;;
50350;SDS011;36250;48.740;22.174;2024-01-30T06:08:13;31.45;;;12.50;;
50350;SDS011;36250;48.740;22.174;2024-01-30T06:10:39;36.35;;;14.18;;
50350;SDS011;36250;48.740;22.174;2024-01-30T06:13:04;27.63;;;11.43;;
50350;SDS011;36250;48.740;22.174;2024-01-30T06:15:29;25.70;;;12.52;;
50350;SDS011;36250;48.740;22.174;2024-01-30T06:17:55;28.45;;;13.40;;
50350;SDS011;36250;48.740;22.174;2024-01-30T06:20:20;43.60;;;20.00;;
50350;SDS011;36250;48.740;22.174;2024-01-30T06:22:46;53.67;;;23.48;;
50350;SDS011;36250;48.740;22.174;2024-01-30T06:25:11;116.38;;;50.53;;
50350;SDS011;36250;48.740;22.174;2024-01-30T06:27:37;165.35;;;70.15;;
50350;SDS011;36250;48.740;22.174;2024-01-30T06:30:02;141.90;;;61.92;;
50350;SDS011;36250;48.740;22.174;2024-01-30T06:32:29;115.50;;;54.55;;
50350;SDS011;36250;48.740;22.174;2024-01-30T06:34:59;145.35;;;68.30;;
50350;SDS011;36250;48.740;22.174;2024-01-30T06:37:24;140.60;;;67.60;;
50350;SDS011;36250;48.740;22.174;2024-01-30T06:39:50;130.85;;;67.55;;
50350;SDS011;36250;48.740;22.174;2024-01-30T06:42:15;135.60;;;66.57;;
50350;SDS011;36250;48.740;22.174;2024-01-30T06:44:41;139.48;;;63.10;;
50350;SDS011;36250;48.740;22.174;2024-01-30T06:47:06;135.52;;;65.50;;
50350;SDS011;36250;48.740;22.174;2024-01-30T06:49:31;120.03;;;58.80;;
50350;SDS011;36250;48.740;22.174;2024-01-30T06:51:56;114.72;;;54.67;;
50350;SDS011;36250;48.740;22.174;2024-01-30T06:54:22;107.65;;;55.03;;
50350;SDS011;36250;48.740;22.174;2024-01-30T06:56:47;90.80;;;42.63;;
50350;SDS011;36250;48.740;22.174;2024-01-30T06:59:12;97.20;;;47.83;;
50350;SDS011;36250;48.740;22.174;2024-01-30T07:01:38;110.68;;;51.75;;
50350;SDS011;36250;48.740;22.174;2024-01-30T07:04:03;108.10;;;54.75;;
50350;SDS011;36250;48.740;22.174;2024-01-30T07:06:28;117.22;;;55.90;;
50350;SDS011;36250;48.740;22.174;2024-01-30T07:08:54;121.55;;;57.08;;
50350;SDS011;36250;48.740;22.174;2024-01-30T07:11:19;101.78;;;50.78;;
50350;SDS011;36250;48.740;22.174;2024-01-30T07:13:47;157.98;;;76.00;;
50350;SDS011;36250;48.740;22.174;2024-01-30T07:16:13;146.30;;;70.72;;
50350;SDS011;36250;48.740;22.174;2024-01-30T07:18:39;151.75;;;72.88;;
50350;SDS011;36250;48.740;22.174;2024-01-30T07:21:04;127.10;;;62.03;;
50350;SDS011;36250;48.740;22.174;2024-01-30T07:23:30;102.20;;;54.85;;
50350;SDS011;36250;48.740;22.174;2024-01-30T07:25:55;115.28;;;54.92;;
50350;SDS011;36250;48.740;22.174;2024-01-30T07:28:21;95.05;;;50.53;;
50350;SDS011;36250;48.740;22.174;2024-01-30T07:30:46;105.60;;;51.47;;
50350;SDS011;36250;48.740;22.174;2024-01-30T07:33:13;92.43;;;48.42;;
50350;SDS011;36250;48.740;22.174;2024-01-30T07:35:39;70.68;;;37.13;;
50350;SDS011;36250;48.740;22.174;2024-01-30T07:38:04;45.15;;;22.52;;
50350;SDS011;36250;48.740;22.174;2024-01-30T07:40:29;37.60;;;22.58;;
50350;SDS011;36250;48.740;22.174;2024-01-30T07:42:55;23.75;;;12.07;;
50350;SDS011;36250;48.740;22.174;2024-01-30T07:45:20;15.82;;;9.65;;
50350;SDS011;36250;48.740;22.174;2024-01-30T07:47:48;18.02;;;10.50;;
50350;SDS011;36250;48.740;22.174;2024-01-30T07:50:14;24.58;;;10.75;;
50350;SDS011;36250;48.740;22.174;2024-01-30T07:52:40;21.35;;;11.93;;
50350;SDS011;36250;48.740;22.174;2024-01-30T07:55:05;28.85;;;14.98;;
50350;SDS011;36250;48.740;22.174;2024-01-30T07:57:32;26.70;;;14.32;;
50350;SDS011;36250;48.740;22.174;2024-01-30T07:59:59;30.23;;;15.73;;
50350;SDS011;36250;48.740;22.174;2024-01-30T08:02:24;35.97;;;18.70;;
50350;SDS011;36250;48.740;22.174;2024-01-30T08:04:49;39.45;;;22.33;;
50350;SDS011;36250;48.740;22.174;2024-01-30T08:07:15;46.95;;;23.98;;
50350;SDS011;36250;48.740;22.174;2024-01-30T08:09:40;70.97;;;30.67;;
50350;SDS011;36250;48.740;22.174;2024-01-30T08:12:06;68.45;;;32.50;;
50350;SDS011;36250;48.740;22.174;2024-01-30T08:14:31;91.53;;;37.00;;
50350;SDS011;36250;48.740;22.174;2024-01-30T08:16:57;57.85;;;27.08;;
50350;SDS011;36250;48.740;22.174;2024-01-30T08:19:22;72.97;;;31.00;;
50350;SDS011;36250;48.740;22.174;2024-01-30T08:21:47;90.75;;;34.90;;
50350;SDS011;36250;48.740;22.174;2024-01-30T08:24:12;60.20;;;29.15;;
50350;SDS011;36250;48.740;22.174;2024-01-30T08:26:38;67.38;;;30.83;;
50350;SDS011;36250;48.740;22.174;2024-01-30T08:29:03;51.53;;;26.38;;
50350;SDS011;36250;48.740;22.174;2024-01-30T08:31:29;65.95;;;29.05;;
50350;SDS011;36250;48.740;22.174;2024-01-30T08:33:54;65.70;;;29.00;;
50350;SDS011;36250;48.740;22.174;2024-01-30T08:36:19;56.20;;;27.48;;
50350;SDS011;36250;48.740;22.174;2024-01-30T08:38:45;64.03;;;29.05;;
50350;SDS011;36250;48.740;22.174;2024-01-30T08:41:10;52.63;;;26.30;;
50350;SDS011;36250;48.740;22.174;2024-01-30T08:43:36;53.90;;;26.45;;
50350;SDS011;36250;48.740;22.174;2024-01-30T08:46:01;52.47;;;24.02;;
50350;SDS011;36250;48.740;22.174;2024-01-30T08:48:27;50.10;;;26.30;;
50350;SDS011;36250;48.740;22.174;2024-01-30T08:50:53;48.97;;;25.48;;
50350;SDS011;36250;48.740;22.174;2024-01-30T08:53:18;50.83;;;25.15;;
50350;SDS011;36250;48.740;22.174;2024-01-30T08:55:44;64.40;;;31.45;;
50350;SDS011;36250;48.740;22.174;2024-01-30T08:58:09;51.38;;;28.27;;
50350;SDS011;36250;48.740;22.174;2024-01-30T09:00:35;62.92;;;31.45;;
50350;SDS011;36250;48.740;22.174;2024-01-30T09:03:00;58.47;;;29.88;;
50350;SDS011;36250;48.740;22.174;2024-01-30T09:05:25;54.22;;;29.77;;
50350;SDS011;36250;48.740;22.174;2024-01-30T09:07:51;58.63;;;27.65;;
50350;SDS011;36250;48.740;22.174;2024-01-30T09:10:16;50.85;;;26.55;;
50350;SDS011;36250;48.740;22.174;2024-01-30T09:12:42;40.50;;;21.55;;
50350;SDS011;36250;48.740;22.174;2024-01-30T09:15:07;42.58;;;23.20;;
50350;SDS011;36250;48.740;22.174;2024-01-30T09:17:33;41.22;;;22.75;;
50350;SDS011;36250;48.740;22.174;2024-01-30T09:19:58;39.35;;;20.88;;
50350;SDS011;36250;48.740;22.174;2024-01-30T09:22:24;42.70;;;20.92;;
50350;SDS011;36250;48.740;22.174;2024-01-30T09:24:49;37.60;;;21.42;;
50350;SDS011;36250;48.740;22.174;2024-01-30T09:27:15;45.65;;;22.70;;
50350;SDS011;36250;48.740;22.174;2024-01-30T09:29:40;40.70;;;21.13;;
50350;SDS011;36250;48.740;22.174;2024-01-30T09:32:05;39.38;;;21.48;;
50350;SDS011;36250;48.740;22.174;2024-01-30T09:34:31;48.78;;;22.88;;
50350;SDS011;36250;48.740;22.174;2024-01-30T09:36:58;46.92;;;22.08;;
50350;SDS011;36250;48.740;22.174;2024-01-30T09:39:24;44.00;;;22.35;;
50350;SDS011;36250;48.740;22.174;2024-01-30T09:41:55;43.58;;;23.70;;
50350;SDS011;36250;48.740;22.174;2024-01-30T09:44:28;42.42;;;23.50;;
50350;SDS011;36250;48.740;22.174;2024-01-30T09:46:55;44.20;;;22.13;;
50350;SDS011;36250;48.740;22.174;2024-01-30T09:49:23;43.38;;;23.48;;
50350;SDS011;36250;48.740;22.174;2024-01-30T09:51:50;49.25;;;23.77;;
50350;SDS011;36250;48.740;22.174;2024-01-30T09:54:18;43.67;;;21.83;;
50350;SDS011;36250;48.740;22.174;2024-01-30T09:56:44;47.95;;;25.30;;
50350;SDS011;36250;48.740;22.174;2024-01-30T09:59:10;41.53;;;22.60;;
50350;SDS011;36250;48.740;22.174;2024-01-30T10:01:36;52.17;;;22.15;;
50350;SDS011;36250;48.740;22.174;2024-01-30T10:04:01;44.05;;;23.27;;
50350;SDS011;36250;48.740;22.174;2024-01-30T10:06:26;39.25;;;23.05;;
50350;SDS011;36250;48.740;22.174;2024-01-30T10:08:52;36.67;;;21.00;;
50350;SDS011;36250;48.740;22.174;2024-01-30T10:11:18;40.72;;;20.27;;
50350;SDS011;36250;48.740;22.174;2024-01-30T10:13:43;40.08;;;21.55;;
50350;SDS011;36250;48.740;22.174;2024-01-30T10:16:09;37.53;;;18.88;;
50350;SDS011;36250;48.740;22.174;2024-01-30T10:18:34;32.92;;;18.02;;
50350;SDS011;36250;48.740;22.174;2024-01-30T10:20:59;33.65;;;17.00;;
50350;SDS011;36250;48.740;22.174;2024-01-30T10:23:25;28.92;;;15.90;;
50350;SDS011;36250;48.740;22.174;2024-01-30T10:25:51;26.20;;;14.43;;
50350;SDS011;36250;48.740;22.174;2024-01-30T10:28:17;29.35;;;15.50;;
50350;SDS011;36250;48.740;22.174;2024-01-30T10:30:42;28.60;;;15.35;;
50350;SDS011;36250;48.740;22.174;2024-01-30T10:33:08;29.20;;;14.75;;
50350;SDS011;36250;48.740;22.174;2024-01-30T10:35:33;27.05;;;14.80;;
50350;SDS011;36250;48.740;22.174;2024-01-30T10:37:59;27.95;;;14.27;;
50350;SDS011;36250;48.740;22.174;2024-01-30T10:40:26;24.90;;;14.40;;
50350;SDS011;36250;48.740;22.174;2024-01-30T10:42:53;26.23;;;16.33;;
50350;SDS011;36250;48.740;22.174;2024-01-30T10:45:20;31.90;;;15.30;;
50350;SDS011;36250;48.740;22.174;2024-01-30T10:47:50;32.10;;;15.35;;
50350;SDS011;36250;48.740;22.174;2024-01-30T10:50:18;36.55;;;19.88;;
50350;SDS011;36250;48.740;22.174;2024-01-30T10:52:44;36.97;;;19.30;;
50350;SDS011;36250;48.740;22.174;2024-01-30T10:55:10;33.55;;;18.23;;
50350;SDS011;36250;48.740;22.174;2024-01-30T10:57:36;28.45;;;16.38;;
50350;SDS011;36250;48.740;22.174;2024-01-30T11:00:06;29.85;;;15.85;;
50350;SDS011;36250;48.740;22.174;2024-01-30T11:02:36;32.95;;;17.67;;
50350;SDS011;36250;48.740;22.174;2024-01-30T11:05:06;32.88;;;16.10;;
50350;SDS011;36250;48.740;22.174;2024-01-30T11:07:31;29.83;;;15.80;;
50350;SDS011;36250;48.740;22.174;2024-01-30T11:12:23;23.90;;;14.48;;
50350;SDS011;36250;48.740;22.174;2024-01-30T11:14:50;24.85;;;14.90;;
50350;SDS011;36250;48.740;22.174;2024-01-30T11:20:19;27.90;;;15.83;;
50350;SDS011;36250;48.740;22.174;2024-01-30T11:22:46;29.00;;;15.35;;
50350;SDS011;36250;48.740;22.174;2024-01-30T11:25:13;28.05;;;16.08;;
50350;SDS011;36250;48.740;22.174;2024-01-30T11:27:41;29.45;;;17.05;;
50350;SDS011;36250;48.740;22.174;2024-01-30T11:30:07;26.30;;;16.75;;
50350;SDS011;36250;48.740;22.174;2024-01-30T11:32:33;28.42;;;16.63;;
50350;SDS011;36250;48.740;22.174;2024-01-30T11:34:58;27.58;;;16.38;;
50350;SDS011;36250;48.740;22.174;2024-01-30T11:37:25;32.83;;;16.10;;
50350;SDS011;36250;48.740;22.174;2024-01-30T11:39:53;29.65;;;16.27;;
50350;SDS011;36250;48.740;22.174;2024-01-30T11:42:21;27.00;;;17.17;;
50350;SDS011;36250;48.740;22.174;2024-01-30T11:44:49;30.25;;;17.17;;
50350;SDS011;36250;48.740;22.174;2024-01-30T11:47:15;35.65;;;17.52;;
50350;SDS011;36250;48.740;22.174;2024-01-30T11:49:41;29.85;;;17.38;;
50350;SDS011;36250;48.740;22.174;2024-01-30T11:52:08;31.25;;;17.17;;
50350;SDS011;36250;48.740;22.174;2024-01-30T11:54:34;31.38;;;18.20;;
50350;SDS011;36250;48.740;22.174;2024-01-30T11:56:59;35.53;;;18.83;;
50350;SDS011;36250;48.740;22.174;2024-01-30T11:59:25;29.77;;;18.13;;
50350;SDS011;36250;48.740;22.174;2024-01-30T12:01:51;32.35;;;17.85;;
50350;SDS011;36250;48.740;22.174;2024-01-30T12:04:17;28.25;;;17.35;;
50350;SDS011;36250;48.740;22.174;2024-01-30T12:06:42;29.35;;;17.75;;
50350;SDS011;36250;48.740;22.174;2024-01-30T12:09:08;36.58;;;18.38;;
50350;SDS011;36250;48.740;22.174;2024-01-30T12:11:46;30.45;;;19.05;;
50350;SDS011;36250;48.740;22.174;2024-01-30T12:14:12;35.50;;;18.73;;
50350;SDS011;36250;48.740;22.174;2024-01-30T12:16:38;29.55;;;18.02;;
50350;SDS011;36250;48.740;22.174;2024-01-30T12:19:03;31.88;;;18.85;;
50350;SDS011;36250;48.740;22.174;2024-01-30T12:21:29;33.97;;;18.23;;
50350;SDS011;36250;48.740;22.174;2024-01-30T12:23:55;35.47;;;18.52;;
50350;SDS011;36250;48.740;22.174;2024-01-30T12:26:23;30.67;;;18.98;;
50350;SDS011;36250;48.740;22.174;2024-01-30T12:28:50;33.30;;;18.75;;
50350;SDS011;36250;48.740;22.174;2024-01-30T12:31:16;58.63;;;29.70;;
50350;SDS011;36250;48.740;22.174;2024-01-30T12:33:41;63.50;;;35.17;;
50350;SDS011;36250;48.740;22.174;2024-01-30T12:36:06;33.72;;;19.90;;
50350;SDS011;36250;48.740;22.174;2024-01-30T12:38:32;31.85;;;19.02;;
50350;SDS011;36250;48.740;22.174;2024-01-30T12:40:58;33.33;;;19.02;;
50350;SDS011;36250;48.740;22.174;2024-01-30T12:43:23;31.48;;;17.42;;
50350;SDS011;36250;48.740;22.174;2024-01-30T12:45:50;29.80;;;18.63;;
50350;SDS011;36250;48.740;22.174;2024-01-30T12:48:17;32.60;;;20.80;;
50350;SDS011;36250;48.740;22.174;2024-01-30T12:50:42;28.20;;;19.23;;
50350;SDS011;36250;48.740;22.174;2024-01-30T12:53:08;31.48;;;19.95;;
50350;SDS011;36250;48.740;22.174;2024-01-30T12:55:34;28.20;;;19.17;;
50350;SDS011;36250;48.740;22.174;2024-01-30T12:58:00;27.83;;;18.98;;
50350;SDS011;36250;48.740;22.174;2024-01-30T13:00:25;28.38;;;19.52;;
50350;SDS011;36250;48.740;22.174;2024-01-30T13:02:50;26.40;;;20.13;;
50350;SDS011;36250;48.740;22.174;2024-01-30T13:05:16;27.85;;;20.38;;
50350;SDS011;36250;48.740;22.174;2024-01-30T13:07:41;32.72;;;20.45;;
50350;SDS011;36250;48.740;22.174;2024-01-30T13:10:07;25.80;;;19.20;;
50350;SDS011;36250;48.740;22.174;2024-01-30T13:12:33;28.50;;;19.75;;
50350;SDS011;36250;48.740;22.174;2024-01-30T13:14:58;24.42;;;18.70;;
50350;SDS011;36250;48.740;22.174;2024-01-30T13:17:26;25.25;;;18.88;;
50350;SDS011;36250;48.740;22.174;2024-01-30T13:19:51;25.23;;;18.60;;
50350;SDS011;36250;48.740;22.174;2024-01-30T13:22:16;24.52;;;17.63;;
50350;SDS011;36250;48.740;22.174;2024-01-30T13:24:42;26.90;;;18.00;;
50350;SDS011;36250;48.740;22.174;2024-01-30T13:27:07;21.95;;;16.90;;
50350;SDS011;36250;48.740;22.174;2024-01-30T13:29:33;25.13;;;18.50;;
50350;SDS011;36250;48.740;22.174;2024-01-30T13:31:59;22.98;;;17.70;;
50350;SDS011;36250;48.740;22.174;2024-01-30T13:34:24;24.25;;;18.27;;
50350;SDS011;36250;48.740;22.174;2024-01-30T13:36:50;23.40;;;17.92;;
50350;SDS011;36250;48.740;22.174;2024-01-30T13:39:15;24.10;;;17.58;;
50350;SDS011;36250;48.740;22.174;2024-01-30T13:41:41;24.25;;;17.65;;
50350;SDS011;36250;48.740;22.174;2024-01-30T13:44:07;22.58;;;17.98;;
50350;SDS011;36250;48.740;22.174;2024-01-30T13:46:33;23.33;;;18.45;;
50350;SDS011;36250;48.740;22.174;2024-01-30T13:48:59;22.25;;;17.55;;
50350;SDS011;36250;48.740;22.174;2024-01-30T13:51:25;27.90;;;18.23;;
50350;SDS011;36250;48.740;22.174;2024-01-30T13:53:50;24.15;;;17.60;;
50350;SDS011;36250;48.740;22.174;2024-01-30T13:56:16;23.13;;;17.60;;
50350;SDS011;36250;48.740;22.174;2024-01-30T13:58:41;22.20;;;16.92;;
50350;SDS011;36250;48.740;22.174;2024-01-30T14:01:07;22.90;;;17.77;;
50350;SDS011;36250;48.740;22.174;2024-01-30T14:03:32;23.75;;;18.08;;
50350;SDS011;36250;48.740;22.174;2024-01-30T14:05:57;23.15;;;18.23;;
50350;SDS011;36250;48.740;22.174;2024-01-30T14:08:23;23.08;;;17.42;;